Time;durP1;ratioP1;P1;durP2;ratioP2;P2;SDS_P1;SDS_P2;PMS_P1;PMS_P2;Temp;Humidity;BMP_temperature;BMP_pressure;BME280_temperature;BME280_humidity;BME280_pressure;Samples;Min_cycle;Max_cycle;Signal;HPM_P1;HPM_P2
2024/04/03 00:01:37;;;;;;;16.73;6.15;;;9.30;99.90;;;;;;5058514;28;20045;-86
2024/04/03 00:04:04;;;;;;;12.43;5.57;;;9.20;99.90;;;;;;5054915;28;20042;-86
2024/04/03 00:06:30;;;;;;;15.85;5.22;;;9.20;99.90;;;;;;5041149;28;20061;-86
2024/04/03 00:08:57;;;;;;;16.58;5.68;;;9.30;99.90;;;;;;5033769;28;20586;-86
2024/04/03 00:11:24;;;;;;;15.25;5.65;;;9.30;99.90;;;;;;5040094;28;20042;-87
2024/04/03 00:13:50;;;;;;;16.17;6.32;;;9.20;99.90;;;;;;5057441;28;20049;-86
2024/04/03 00:16:17;;;;;;;22.25;5.78;;;9.30;99.90;;;;;;5049447;28;20057;-86
2024/04/03 00:18:43;;;;;;;16.33;6.10;;;9.30;99.90;;;;;;5050978;28;20044;-86
2024/04/03 00:21:10;;;;;;;21.10;5.50;;;9.20;99.90;;;;;;5038585;28;20382;-86
2024/04/03 00:23:37;;;;;;;16.90;6.13;;;9.30;99.90;;;;;;5050088;28;20234;-85
2024/04/03 00:26:04;;;;;;;13.85;5.88;;;9.20;99.90;;;;;;5050473;28;20041;-85
2024/04/03 00:28:30;;;;;;;15.07;5.93;;;9.60;99.90;;;;;;5039836;28;20469;-86
2024/04/03 00:31:01;;;;;;;14.07;5.72;;;9.20;99.90;;;;;;5043420;28;20048;-86
2024/04/03 00:33:28;;;;;;;16.52;6.40;;;9.20;99.90;;;;;;5059958;28;20494;-84
2024/04/03 00:35:59;;;;;;;16.42;5.50;;;9.20;99.90;;;;;;5043695;28;20084;-86
2024/04/03 00:38:26;;;;;;;15.88;6.18;;;9.20;99.90;;;;;;5036036;28;20045;-86
2024/04/03 00:40:57;;;;;;;22.38;6.10;;;9.10;99.90;;;;;;5051354;28;20498;-86
2024/04/03 00:43:28;;;;;;;14.43;6.15;;;9.10;99.90;;;;;;5035531;28;20049;-86
2024/04/03 00:45:58;;;;;;;20.27;6.05;;;9.10;99.90;;;;;;5045889;28;20042;-86
2024/04/03 00:48:25;;;;;;;15.80;6.78;;;9.00;99.90;;;;;;5055740;28;20052;-86
2024/04/03 00:50:55;;;;;;;25.45;7.18;;;9.00;99.90;;;;;;5037963;28;20046;-85
2024/04/03 00:53:23;;;;;;;22.40;6.40;;;9.00;99.90;;;;;;5050368;28;20064;-86
2024/04/03 00:55:50;;;;;;;14.23;6.43;;;8.90;99.90;;;;;;5040786;28;20116;-86
2024/04/03 00:58:17;;;;;;;17.55;6.15;;;9.00;99.90;;;;;;5037017;28;20038;-86
2024/04/03 01:00:44;;;;;;;17.08;6.47;;;9.00;99.90;;;;;;5034748;28;20049;-86
2024/04/03 01:03:11;;;;;;;18.35;6.00;;;8.90;99.90;;;;;;5050122;28;20517;-86
2024/04/03 01:05:37;;;;;;;22.95;6.45;;;9.60;99.90;;;;;;5053627;28;20042;-86
2024/04/03 01:08:04;;;;;;;20.65;6.18;;;9.00;99.90;;;;;;5040863;28;20061;-86
2024/04/03 01:10:32;;;;;;;18.08;6.28;;;8.90;99.90;;;;;;5042828;28;20507;-86
2024/04/03 01:13:01;;;;;;;20.50;6.10;;;9.70;99.90;;;;;;5051164;28;20041;-86
2024/04/03 01:15:29;;;;;;;21.63;6.40;;;9.00;99.90;;;;;;5040604;28;20044;-86
2024/04/03 01:17:56;;;;;;;16.80;5.70;;;9.00;99.90;;;;;;5052954;28;20459;-86
2024/04/03 01:20:24;;;;;;;19.58;6.28;;;9.00;99.90;;;;;;5065537;28;20069;-86
2024/04/03 01:22:51;;;;;;;17.48;6.35;;;9.00;99.90;;;;;;5051612;28;20083;-86
2024/04/03 01:25:18;;;;;;;19.55;6.05;;;9.00;99.90;;;;;;5034066;28;20101;-85
2024/04/03 01:27:45;;;;;;;15.73;5.78;;;9.00;99.90;;;;;;5046277;28;20109;-85
2024/04/03 01:30:11;;;;;;;17.05;5.70;;;9.00;99.90;;;;;;5033242;28;20038;-86
2024/04/03 01:32:38;;;;;;;14.98;5.30;;;9.10;99.90;;;;;;5052802;28;20044;-86
2024/04/03 01:35:05;;;;;;;16.55;5.40;;;9.00;99.90;;;;;;5039804;28;20038;-86
2024/04/03 01:37:32;;;;;;;18.80;5.35;;;9.00;99.90;;;;;;5033367;28;20034;-86
2024/04/03 01:39:59;;;;;;;15.32;4.78;;;9.10;99.90;;;;;;5034078;28;20483;-86
2024/04/03 01:42:25;;;;;;;20.83;5.28;;;9.10;99.90;;;;;;5066315;28;20825;-86
2024/04/03 01:44:52;;;;;;;21.02;4.65;;;9.20;99.90;;;;;;5036971;28;20042;-86
2024/04/03 01:47:19;;;;;;;19.50;5.25;;;9.10;99.90;;;;;;5036717;28;20048;-86
2024/04/03 01:49:45;;;;;;;20.02;4.75;;;9.10;99.90;;;;;;5037431;28;20045;-86
2024/04/03 01:52:12;;;;;;;18.38;5.07;;;9.20;99.90;;;;;;5052582;28;20045;-86
2024/04/03 01:54:38;;;;;;;14.45;4.05;;;9.10;99.90;;;;;;5043246;28;20049;-86
2024/04/03 01:57:05;;;;;;;22.73;5.40;;;9.10;99.90;;;;;;5046361;28;20034;-86
2024/04/03 01:59:32;;;;;;;20.65;5.00;;;9.20;99.90;;;;;;5046547;28;20037;-86
2024/04/03 02:01:59;;;;;;;20.98;5.13;;;9.70;99.90;;;;;;5052431;28;20048;-86
2024/04/03 02:04:25;;;;;;;24.02;4.55;;;9.20;99.90;;;;;;5039277;28;20524;-86
2024/04/03 02:06:52;;;;;;;19.35;4.13;;;9.10;99.90;;;;;;5047808;28;20081;-85
2024/04/03 02:09:19;;;;;;;18.40;4.30;;;9.20;99.90;;;;;;5047264;28;20107;-87
2024/04/03 02:11:45;;;;;;;21.98;4.72;;;9.20;99.90;;;;;;5052345;28;20041;-86
2024/04/03 02:14:12;;;;;;;20.98;4.25;;;9.20;99.90;;;;;;5039166;28;20034;-86
2024/04/03 02:16:43;;;;;;;15.23;4.57;;;9.30;99.90;;;;;;5052535;28;20046;-86
2024/04/03 02:19:10;;;;;;;17.73;4.60;;;9.20;99.90;;;;;;5041134;28;20127;-86
2024/04/03 02:21:37;;;;;;;19.55;4.60;;;9.20;99.90;;;;;;5039791;28;20105;-86
2024/04/03 02:24:04;;;;;;;24.25;5.03;;;9.90;99.90;;;;;;5039108;28;20034;-86
2024/04/03 02:26:31;;;;;;;18.38;4.30;;;9.20;99.90;;;;;;5044757;28;20049;-86
2024/04/03 02:28:58;;;;;;;14.30;4.20;;;9.20;99.90;;;;;;5050233;28;20037;-86
2024/04/03 02:31:24;;;;;;;15.45;4.82;;;9.20;99.90;;;;;;5042736;28;20121;-86
2024/04/03 02:33:51;;;;;;;21.42;5.18;;;9.20;99.90;;;;;;5047142;28;20083;-86
2024/04/03 02:36:18;;;;;;;16.42;4.70;;;9.20;99.90;;;;;;5056555;28;20041;-85
2024/04/03 02:38:44;;;;;;;11.90;4.60;;;9.10;99.90;;;;;;5042432;28;20059;-86
2024/04/03 02:41:11;;;;;;;12.25;5.07;;;9.20;99.90;;;;;;5055572;28;20124;-86
2024/04/03 02:43:38;;;;;;;21.90;6.15;;;9.10;99.90;;;;;;5041440;28;20081;-86
2024/04/03 02:46:04;;;;;;;18.40;5.75;;;9.30;99.90;;;;;;5051458;28;20064;-86
2024/04/03 02:48:31;;;;;;;17.92;5.05;;;9.10;99.90;;;;;;5046602;28;20034;-85
2024/04/03 02:51:03;;;;;;;12.57;5.05;;;9.20;99.90;;;;;;5049432;28;20053;-86
2024/04/03 02:53:31;;;;;;;14.15;5.22;;;9.10;99.90;;;;;;5050027;28;20128;-86
2024/04/03 02:56:04;;;;;;;18.70;5.22;;;9.10;99.90;;;;;;5036030;28;20038;-86
2024/04/03 02:58:35;;;;;;;19.33;4.90;;;9.10;99.90;;;;;;5038009;28;20042;-86
2024/04/03 03:01:03;;;;;;;19.10;5.75;;;9.10;99.90;;;;;;5033533;28;20037;-85
2024/04/03 03:03:31;;;;;;;12.20;4.53;;;9.00;99.90;;;;;;5037008;28;20049;-86
2024/04/03 03:06:05;;;;;;;14.55;4.35;;;9.00;99.90;;;;;;5035586;28;20080;-85
2024/04/03 03:08:34;;;;;;;14.98;4.30;;;9.00;99.90;;;;;;5060501;28;20120;-86
2024/04/03 03:11:03;;;;;;;16.73;4.88;;;8.90;99.90;;;;;;5037716;28;20087;-85
2024/04/03 03:13:30;;;;;;;12.63;4.55;;;9.60;99.90;;;;;;5038250;28;20034;-86
2024/04/03 03:16:01;;;;;;;16.27;4.82;;;8.90;99.90;;;;;;5047838;28;20022;-86
2024/04/03 03:18:30;;;;;;;15.23;4.90;;;8.90;99.90;;;;;;5054160;28;20037;-85
2024/04/03 03:20:57;;;;;;;12.98;4.53;;;8.90;99.90;;;;;;5047125;28;20521;-86
2024/04/03 03:23:24;;;;;;;15.18;4.70;;;8.80;99.90;;;;;;5041561;28;20042;-86
2024/04/03 03:25:54;;;;;;;17.98;5.00;;;9.00;99.90;;;;;;5042835;28;20038;-85
2024/04/03 03:28:21;;;;;;;11.50;4.65;;;8.80;99.90;;;;;;5036889;28;20049;-85
2024/04/03 03:30:49;;;;;;;13.90;4.68;;;9.10;99.90;;;;;;5032059;28;20073;-85
2024/04/03 03:33:17;;;;;;;14.13;5.05;;;8.70;99.90;;;;;;5034483;28;20046;-85
2024/04/03 03:35:52;;;;;;;16.85;4.97;;;9.20;99.90;;;;;;5049321;28;20048;-85
2024/04/03 03:38:19;;;;;;;16.38;4.07;;;8.70;99.90;;;;;;5050572;28;20521;-85
2024/04/03 03:40:46;;;;;;;15.85;4.82;;;8.70;99.90;;;;;;5041439;28;20068;-85
2024/04/03 03:43:13;;;;;;;11.90;4.10;;;8.70;99.90;;;;;;5039726;28;20052;-85
2024/04/03 03:45:45;;;;;;;13.77;4.00;;;8.70;99.90;;;;;;5033896;28;20439;-85
2024/04/03 03:48:12;;;;;;;12.70;4.43;;;8.60;99.90;;;;;;5037247;28;20421;-85
2024/04/03 03:53:30;;;;;;;19.15;5.22;;;8.60;99.90;;;;;;5060387;28;20042;-85
2024/04/03 03:56:07;;;;;;;19.17;4.82;;;8.60;99.90;;;;;;5041062;28;20523;-84
2024/04/03 03:58:34;;;;;;;13.95;4.82;;;8.60;99.90;;;;;;5045975;28;20041;-85
2024/04/03 04:01:06;;;;;;;14.38;4.65;;;8.70;99.90;;;;;;5037499;28;20056;-85
2024/04/03 04:03:33;;;;;;;15.48;4.88;;;8.80;99.90;;;;;;5030751;28;20049;-85
2024/04/03 04:06:00;;;;;;;16.73;4.63;;;8.80;99.90;;;;;;5036461;28;20049;-85
2024/04/03 04:08:27;;;;;;;14.68;4.85;;;8.60;99.90;;;;;;5049503;28;20049;-85
2024/04/03 04:10:55;;;;;;;14.00;4.65;;;9.00;99.90;;;;;;5034034;28;20041;-85
2024/04/03 04:13:22;;;;;;;19.58;5.57;;;8.60;99.90;;;;;;5055730;28;20112;-85
2024/04/03 04:15:49;;;;;;;17.17;4.60;;;9.50;99.90;;;;;;5045230;28;20037;-86
2024/04/03 04:18:16;;;;;;;17.67;4.75;;;8.90;99.90;;;;;;5050685;28;20033;-85
2024/04/03 04:20:43;;;;;;;15.48;5.03;;;8.70;99.90;;;;;;5058413;28;20050;-85
2024/04/03 04:23:10;;;;;;;15.90;4.80;;;8.60;99.90;;;;;;5044480;28;20046;-85
2024/04/03 04:25:38;;;;;;;19.40;5.10;;;8.60;99.90;;;;;;5042683;28;20033;-85
2024/04/03 04:28:05;;;;;;;15.50;5.38;;;8.60;99.90;;;;;;5043783;28;20418;-86
2024/04/03 04:30:32;;;;;;;14.98;4.90;;;8.60;99.90;;;;;;5064461;28;20044;-85
2024/04/03 04:32:58;;;;;;;14.70;4.85;;;8.60;99.90;;;;;;5042003;28;20034;-85
2024/04/03 04:35:25;;;;;;;18.42;4.85;;;8.60;99.90;;;;;;5042007;28;20548;-85
2024/04/03 04:37:52;;;;;;;15.43;4.78;;;8.60;99.90;;;;;;5053318;28;20049;-85
2024/04/03 04:40:18;;;;;;;13.32;4.95;;;8.60;99.90;;;;;;5035304;28;20042;-85
2024/04/03 04:42:45;;;;;;;18.20;5.40;;;9.10;99.90;;;;;;5061961;28;20049;-84
2024/04/03 04:45:12;;;;;;;16.10;4.68;;;8.60;99.90;;;;;;5049803;28;20069;-85
2024/04/03 04:47:39;;;;;;;15.68;4.43;;;8.70;99.90;;;;;;5056284;28;20045;-85
2024/04/03 04:50:09;;;;;;;15.77;5.68;;;8.60;99.90;;;;;;5034473;28;20344;-85
2024/04/03 04:52:36;;;;;;;17.38;4.40;;;8.60;99.90;;;;;;5042084;28;20045;-85
2024/04/03 04:55:03;;;;;;;19.50;4.95;;;8.90;99.90;;;;;;5044415;28;20393;-86
2024/04/03 04:57:29;;;;;;;15.68;5.03;;;8.60;99.90;;;;;;5040644;28;20134;-85
2024/04/03 04:59:56;;;;;;;14.32;5.10;;;9.10;99.90;;;;;;5051463;28;20487;-85
2024/04/03 05:02:23;;;;;;;12.55;4.40;;;8.60;99.90;;;;;;5040862;28;20042;-85
2024/04/03 05:04:50;;;;;;;14.80;4.53;;;8.70;99.90;;;;;;5056658;28;20407;-85
2024/04/03 05:07:16;;;;;;;15.93;4.78;;;8.60;99.90;;;;;;5033319;28;20061;-85
2024/04/03 05:09:45;;;;;;;20.85;4.90;;;8.60;99.90;;;;;;5047742;28;20060;-84
2024/04/03 05:12:12;;;;;;;13.35;5.07;;;8.60;99.90;;;;;;5033065;28;20042;-85
2024/04/03 05:14:38;;;;;;;15.48;4.80;;;8.60;99.90;;;;;;5048718;28;20038;-85
2024/04/03 05:17:05;;;;;;;14.63;4.97;;;8.60;99.90;;;;;;5033204;28;20041;-85
2024/04/03 05:19:32;;;;;;;13.55;4.85;;;9.00;99.90;;;;;;5035669;28;20525;-85
2024/04/03 05:21:58;;;;;;;14.30;4.93;;;8.60;99.90;;;;;;5044010;28;20037;-85
2024/04/03 05:24:25;;;;;;;16.15;5.10;;;8.60;99.90;;;;;;5036710;28;20038;-85
2024/04/03 05:26:51;;;;;;;16.98;5.03;;;8.60;99.90;;;;;;5039485;28;20107;-84
2024/04/03 05:29:18;;;;;;;21.15;5.10;;;8.60;99.90;;;;;;5066853;28;20045;-85
2024/04/03 05:31:45;;;;;;;17.15;5.40;;;8.60;99.90;;;;;;5059642;28;20045;-84
2024/04/03 05:34:11;;;;;;;14.73;4.78;;;9.00;99.90;;;;;;5069039;28;20038;-85
2024/04/03 05:36:38;;;;;;;17.00;4.85;;;8.60;99.90;;;;;;5040299;28;20406;-85
2024/04/03 05:39:05;;;;;;;12.18;4.32;;;9.00;99.90;;;;;;5034343;28;20040;-85
2024/04/03 05:41:31;;;;;;;23.00;4.45;;;8.60;99.90;;;;;;5032849;28;20411;-85
2024/04/03 05:43:58;;;;;;;14.43;4.75;;;8.60;99.90;;;;;;5052996;28;20049;-85
2024/04/03 05:46:25;;;;;;;16.67;4.53;;;8.90;99.90;;;;;;5040740;28;20049;-85
2024/04/03 05:48:51;;;;;;;23.95;5.90;;;9.10;99.90;;;;;;5056706;28;20042;-85
2024/04/03 05:51:18;;;;;;;14.85;5.20;;;8.70;99.90;;;;;;5043409;28;20033;-85
2024/04/03 05:53:45;;;;;;;17.83;5.65;;;9.60;99.90;;;;;;5057082;28;20124;-85
2024/04/03 05:56:12;;;;;;;16.33;5.35;;;8.80;99.90;;;;;;5053041;28;20149;-85
2024/04/03 05:58:40;;;;;;;14.73;4.97;;;8.80;99.90;;;;;;5046572;28;20045;-85
2024/04/03 06:01:07;;;;;;;17.17;6.15;;;9.20;99.90;;;;;;5037337;28;20395;-85
2024/04/03 06:03:34;;;;;;;22.85;5.72;;;8.70;99.90;;;;;;5036426;28;20038;-85
2024/04/03 06:06:00;;;;;;;13.98;5.65;;;8.70;99.90;;;;;;5039996;28;20053;-84
2024/04/03 06:08:27;;;;;;;21.40;6.38;;;8.70;99.90;;;;;;5039465;28;20080;-85
2024/04/03 06:10:54;;;;;;;14.15;6.28;;;8.70;99.90;;;;;;5039781;28;20493;-85
2024/04/03 06:13:20;;;;;;;16.70;6.63;;;8.70;99.90;;;;;;5038098;28;20121;-85
2024/04/03 06:15:47;;;;;;;15.13;5.68;;;8.70;99.90;;;;;;5033419;28;20053;-85
2024/04/03 06:18:14;;;;;;;11.75;6.45;;;9.50;99.90;;;;;;5045182;28;20498;-85
2024/04/03 06:20:41;;;;;;;14.40;6.28;;;9.00;99.90;;;;;;5033170;28;20052;-85
2024/04/03 06:23:08;;;;;;;18.83;6.78;;;9.20;99.90;;;;;;5034228;28;20506;-85
2024/04/03 06:25:36;;;;;;;19.13;6.45;;;8.80;99.90;;;;;;5043540;28;20045;-84
2024/04/03 06:28:05;;;;;;;14.75;6.10;;;8.80;99.90;;;;;;5047133;28;20140;-84
2024/04/03 06:30:31;;;;;;;19.55;7.70;;;8.80;99.90;;;;;;5063264;28;20132;-84
2024/04/03 06:32:58;;;;;;;20.25;7.68;;;8.80;99.90;;;;;;5045631;28;20130;-84
2024/04/03 06:35:25;;;;;;;19.17;8.23;;;8.80;99.90;;;;;;5035821;28;20049;-84
2024/04/03 06:37:52;;;;;;;20.33;7.88;;;9.60;99.90;;;;;;5043972;28;20167;-84
2024/04/03 06:40:19;;;;;;;16.00;7.43;;;8.80;99.90;;;;;;5035504;28;20127;-83
2024/04/03 06:42:46;;;;;;;15.05;7.30;;;8.90;99.90;;;;;;5050339;28;20412;-84
2024/04/03 06:45:12;;;;;;;17.13;7.32;;;8.90;99.90;;;;;;5044048;28;20038;-84
2024/04/03 06:47:39;;;;;;;14.43;7.03;;;8.90;99.90;;;;;;5040956;28;20044;-84
2024/04/03 06:50:06;;;;;;;16.75;7.30;;;8.90;99.90;;;;;;5033484;28;20045;-84
2024/04/03 06:52:34;;;;;;;17.73;8.68;;;8.90;99.90;;;;;;5040634;28;20041;-84
2024/04/03 06:55:00;;;;;;;18.90;7.55;;;9.00;99.90;;;;;;5042789;28;20453;-84
2024/04/03 06:57:27;;;;;;;14.65;6.90;;;9.30;99.90;;;;;;5034027;28;20046;-85
2024/04/03 06:59:53;;;;;;;17.20;6.72;;;9.10;99.90;;;;;;5032551;28;20522;-84
2024/04/03 07:02:20;;;;;;;16.10;7.15;;;9.00;99.90;;;;;;5045821;28;20041;-84
2024/04/03 07:04:47;;;;;;;16.17;7.90;;;9.10;99.90;;;;;;5061631;28;20052;-83
2024/04/03 07:07:13;;;;;;;15.43;7.80;;;9.60;99.90;;;;;;5033799;28;20499;-84
2024/04/03 07:09:40;;;;;;;19.33;7.70;;;9.00;99.90;;;;;;5037423;28;20056;-86
2024/04/03 07:12:07;;;;;;;16.20;8.10;;;9.10;99.90;;;;;;5041289;28;20069;-84
2024/04/03 07:14:33;;;;;;;12.75;7.55;;;9.00;99.90;;;;;;5038133;28;20045;-85
2024/04/03 07:17:00;;;;;;;17.42;7.75;;;9.00;99.90;;;;;;5041337;28;20044;-84
2024/04/03 07:19:27;;;;;;;17.50;8.40;;;9.20;99.90;;;;;;5039528;28;20033;-84
2024/04/03 07:21:54;;;;;;;16.23;8.40;;;9.00;99.90;;;;;;5036736;28;20116;-85
2024/04/03 07:24:20;;;;;;;17.98;8.80;;;9.20;99.90;;;;;;5052056;28;20555;-84
2024/04/03 07:26:48;;;;;;;14.93;8.20;;;9.30;99.90;;;;;;5039107;28;20047;-84
2024/04/03 07:29:14;;;;;;;17.95;8.15;;;9.00;99.90;;;;;;5037650;28;20678;-84
2024/04/03 07:31:41;;;;;;;19.90;9.68;;;9.00;99.90;;;;;;5031234;28;20054;-87
2024/04/03 07:34:08;;;;;;;19.60;8.18;;;9.10;99.90;;;;;;5039679;28;20046;-84
2024/04/03 07:36:38;;;;;;;17.55;8.38;;;9.20;99.90;;;;;;5060569;28;20513;-85
2024/04/03 07:39:05;;;;;;;20.70;8.90;;;9.10;99.90;;;;;;5040825;28;20033;-85
2024/04/03 07:41:33;;;;;;;19.40;8.90;;;9.00;99.90;;;;;;5036880;28;20034;-85
2024/04/03 07:44:00;;;;;;;16.63;8.80;;;9.10;99.90;;;;;;5034854;28;20132;-84
2024/04/03 07:46:28;;;;;;;14.52;8.10;;;9.10;99.90;;;;;;5043917;28;20195;-84
2024/04/03 07:48:54;;;;;;;19.50;8.88;;;9.10;99.90;;;;;;5037852;28;20564;-85
2024/04/03 07:51:21;;;;;;;17.45;8.45;;;9.10;99.90;;;;;;5049839;28;20033;-84
2024/04/03 07:53:48;;;;;;;15.57;8.35;;;9.30;99.90;;;;;;5040876;28;20049;-84
2024/04/03 07:56:15;;;;;;;15.02;8.25;;;9.60;99.90;;;;;;5045191;28;20048;-86
2024/04/03 07:58:42;;;;;;;20.15;8.55;;;9.30;99.90;;;;;;5041078;28;20034;-84
2024/04/03 08:01:09;;;;;;;15.80;8.98;;;9.30;99.90;;;;;;5037682;28;20120;-86
2024/04/03 08:03:37;;;;;;;17.60;8.38;;;9.40;99.90;;;;;;5035316;28;20122;-84
2024/04/03 08:06:05;;;;;;;16.63;7.68;;;9.40;99.90;;;;;;5045524;28;20045;-85
2024/04/03 08:08:32;;;;;;;15.77;7.68;;;9.50;99.90;;;;;;5034184;28;20041;-85
2024/04/03 08:11:03;;;;;;;15.68;8.00;;;9.50;99.90;;;;;;5058570;28;20052;-84
2024/04/03 08:13:30;;;;;;;16.65;7.70;;;9.60;99.90;;;;;;5057435;28;20229;-84
2024/04/03 08:16:08;;;;;;;19.20;7.95;;;9.60;99.90;;;;;;5051049;28;20084;-85
2024/04/03 08:18:35;;;;;;;11.60;6.95;;;9.70;99.90;;;;;;5033332;28;20069;-85
2024/04/03 08:21:06;;;;;;;14.85;7.55;;;9.70;99.90;;;;;;5039626;28;20041;-85
2024/04/03 08:23:33;;;;;;;13.68;7.18;;;9.90;99.90;;;;;;5033434;28;20036;-85
2024/04/03 08:26:07;;;;;;;14.15;6.95;;;9.80;99.90;;;;;;5040562;28;20055;-85
2024/04/03 08:28:39;;;;;;;15.30;7.20;;;9.90;99.90;;;;;;5041988;28;20042;-85
2024/04/03 08:31:13;;;;;;;12.30;6.88;;;10.00;99.90;;;;;;5037353;28;20124;-85
2024/04/03 08:33:41;;;;;;;11.35;6.97;;;10.10;99.90;;;;;;5043326;28;20034;-85
2024/04/03 08:36:11;;;;;;;13.80;6.90;;;10.10;99.90;;;;;;5038492;28;20045;-84
2024/04/03 08:38:38;;;;;;;11.77;6.57;;;10.20;99.90;;;;;;5036098;28;20120;-86
2024/04/03 08:41:05;;;;;;;11.75;6.78;;;10.30;99.90;;;;;;5037994;28;20077;-85
2024/04/03 08:43:34;;;;;;;10.10;5.82;;;10.80;99.90;;;;;;5034170;28;20041;-86
2024/04/03 08:46:01;;;;;;;9.77;6.43;;;10.70;99.90;;;;;;5038803;28;20107;-85
2024/04/03 08:48:29;;;;;;;10.77;6.07;;;10.50;99.90;;;;;;5042808;28;20095;-87
2024/04/03 08:50:56;;;;;;;9.90;6.07;;;10.40;99.90;;;;;;5031605;28;20442;-85
2024/04/03 08:53:24;;;;;;;11.40;5.78;;;10.50;99.90;;;;;;5042908;28;20061;-85
2024/04/03 08:55:54;;;;;;;10.05;5.97;;;10.50;99.90;;;;;;5029573;28;20038;-84
2024/04/03 08:58:22;;;;;;;10.60;5.93;;;10.60;99.90;;;;;;5034283;28;20112;-86
2024/04/03 09:00:50;;;;;;;10.27;5.25;;;10.60;99.90;;;;;;5034008;28;20076;-86
2024/04/03 09:03:19;;;;;;;9.88;5.28;;;10.60;99.90;;;;;;5039188;28;20037;-85
2024/04/03 09:05:47;;;;;;;8.38;4.75;;;10.60;99.90;;;;;;5044280;28;20042;-84
2024/04/03 09:08:14;;;;;;;6.85;4.28;;;10.60;99.90;;;;;;5043387;28;20077;-85
2024/04/03 09:10:47;;;;;;;10.77;4.95;;;10.60;99.90;;;;;;5044264;28;20552;-85
2024/04/03 09:13:13;;;;;;;6.93;4.22;;;10.60;99.90;;;;;;5033335;28;20042;-84
2024/04/03 09:15:41;;;;;;;7.75;4.72;;;10.60;99.90;;;;;;5044097;28;20060;-84
2024/04/03 09:18:09;;;;;;;7.88;4.78;;;10.70;99.90;;;;;;5041079;28;20045;-84
2024/04/03 09:20:40;;;;;;;7.82;4.57;;;10.80;99.90;;;;;;5035894;28;20038;-84
2024/04/03 09:23:09;;;;;;;7.55;4.30;;;10.80;99.90;;;;;;5032796;28;20774;-85
2024/04/03 09:25:37;;;;;;;7.30;4.40;;;11.10;99.90;;;;;;5045613;28;20085;-84
2024/04/03 09:28:08;;;;;;;9.30;4.53;;;10.80;99.90;;;;;;5033325;28;20124;-85
2024/04/03 09:30:39;;;;;;;10.18;4.50;;;10.90;99.90;;;;;;5051580;28;20030;-84
2024/04/03 09:33:07;;;;;;;9.00;4.90;;;11.40;99.90;;;;;;5034648;28;20048;-85
2024/04/03 09:35:35;;;;;;;8.20;4.03;;;11.00;99.90;;;;;;5047091;28;20040;-86
2024/04/03 09:38:02;;;;;;;7.88;4.97;;;11.00;99.90;;;;;;5047889;28;20037;-85
2024/04/03 09:40:31;;;;;;;6.80;4.30;;;11.00;99.90;;;;;;5056153;28;20038;-86
2024/04/03 09:43:02;;;;;;;7.65;4.25;;;11.10;99.90;;;;;;5046643;28;20038;-85
2024/04/03 09:45:30;;;;;;;6.72;4.05;;;11.20;99.90;;;;;;5040084;28;20038;-85
2024/04/03 09:47:59;;;;;;;9.15;4.07;;;11.20;99.90;;;;;;5035206;28;20121;-86
2024/04/03 09:50:43;;;;;;;7.50;4.07;;;11.30;99.90;;;;;;5032716;28;20034;-85
2024/04/03 09:53:19;;;;;;;7.45;4.30;;;11.30;99.90;;;;;;5040445;28;20030;-85
2024/04/03 09:55:49;;;;;;;7.35;4.25;;;11.30;99.90;;;;;;5056514;28;20042;-85
2024/04/03 09:58:20;;;;;;;6.75;4.05;;;11.30;99.90;;;;;;5061470;28;20687;-84
2024/04/03 10:00:52;;;;;;;6.40;3.97;;;11.30;99.90;;;;;;5043546;28;20038;-86
2024/04/03 10:03:23;;;;;;;7.88;3.90;;;11.50;99.90;;;;;;5061927;28;20092;-86
2024/04/03 10:06:03;;;;;;;6.70;3.30;;;11.30;99.90;;;;;;5052903;28;20044;-86
2024/04/03 10:08:33;;;;;;;4.93;3.15;;;11.20;99.90;;;;;;5040185;28;20406;-85
2024/04/03 10:11:05;;;;;;;7.10;3.30;;;11.10;99.90;;;;;;5041563;28;20049;-84
2024/04/03 10:13:36;;;;;;;6.03;3.15;;;11.00;99.90;;;;;;5038222;28;20397;-84
2024/04/03 10:16:04;;;;;;;6.18;4.00;;;10.90;99.90;;;;;;5037535;28;20042;-85
2024/04/03 10:18:35;;;;;;;7.28;4.10;;;10.90;99.90;;;;;;5035164;28;20041;-85
2024/04/03 10:21:03;;;;;;;6.03;3.63;;;10.70;99.90;;;;;;5037364;28;20038;-84
2024/04/03 10:23:39;;;;;;;6.22;3.83;;;10.70;99.90;;;;;;5039239;28;20041;-87
2024/04/03 10:26:06;;;;;;;5.35;3.67;;;10.70;99.90;;;;;;5031705;28;20067;-86
2024/04/03 10:28:33;;;;;;;6.15;4.10;;;10.60;99.90;;;;;;5037024;28;20482;-87
2024/04/03 10:31:00;;;;;;;8.38;4.43;;;10.60;99.90;;;;;;5034581;28;20044;-86
2024/04/03 10:33:29;;;;;;;9.15;4.30;;;10.10;99.90;;;;;;5055484;28;20025;-86
2024/04/03 10:35:56;;;;;;;7.35;3.95;;;10.60;99.90;;;;;;5032090;28;20044;-86
2024/04/03 10:38:24;;;;;;;7.65;4.63;;;10.80;99.90;;;;;;5036655;28;20038;-86
2024/04/03 10:40:51;;;;;;;7.72;4.75;;;11.20;99.90;;;;;;5043029;28;20034;-86
2024/04/03 10:43:19;;;;;;;8.45;5.00;;;10.70;99.90;;;;;;5050980;28;20475;-85
2024/04/03 10:45:51;;;;;;;8.30;5.05;;;10.70;99.90;;;;;;5060643;28;20048;-85
2024/04/03 10:48:22;;;;;;;7.82;5.57;;;10.90;99.90;;;;;;5041184;28;20064;-85
2024/04/03 10:50:49;;;;;;;8.98;5.88;;;11.00;99.90;;;;;;5044602;28;20452;-85
2024/04/03 10:53:16;;;;;;;8.00;5.50;;;11.00;99.90;;;;;;5040492;28;20124;-85
2024/04/03 10:55:45;;;;;;;10.20;6.07;;;11.10;99.90;;;;;;5043150;28;20038;-84
2024/04/03 10:58:12;;;;;;;8.88;6.45;;;11.10;99.90;;;;;;5056549;28;20465;-85
2024/04/03 11:00:40;;;;;;;9.13;6.95;;;11.30;99.90;;;;;;5039108;28;20125;-85
2024/04/03 11:03:10;;;;;;;11.40;7.18;;;11.30;99.90;;;;;;5039259;28;20045;-85
2024/04/03 11:05:37;;;;;;;12.43;7.38;;;11.40;99.90;;;;;;5039805;28;20034;-85
2024/04/03 11:08:12;;;;;;;12.10;7.60;;;11.40;99.90;;;;;;5052062;28;20042;-85
2024/04/03 11:10:39;;;;;;;10.38;7.30;;;11.40;99.90;;;;;;5037165;28;20034;-85
2024/04/03 11:13:10;;;;;;;11.02;7.32;;;11.40;99.90;;;;;;5041441;28;20061;-85
2024/04/03 11:15:38;;;;;;;11.88;7.45;;;11.40;99.90;;;;;;5036630;28;20100;-85
2024/04/03 11:18:05;;;;;;;11.48;7.03;;;11.40;99.90;;;;;;5047017;28;20037;-85
2024/04/03 11:20:34;;;;;;;11.50;7.00;;;11.40;99.90;;;;;;5037995;28;20033;-85
2024/04/03 11:23:01;;;;;;;12.00;8.48;;;11.50;99.90;;;;;;5039359;28;20045;-85
2024/04/03 11:25:29;;;;;;;10.32;6.72;;;11.60;99.90;;;;;;5041932;28;20033;-85
2024/04/03 11:28:00;;;;;;;10.73;7.30;;;11.70;99.90;;;;;;5051603;28;20041;-85
2024/04/03 11:30:30;;;;;;;14.15;8.40;;;11.90;99.90;;;;;;5040892;28;20520;-85
2024/04/03 11:32:57;;;;;;;10.52;7.50;;;12.00;99.90;;;;;;5039327;28;20037;-85
2024/04/03 11:35:24;;;;;;;10.38;6.90;;;12.10;99.90;;;;;;5039150;28;20096;-85
2024/04/03 11:37:52;;;;;;;10.38;7.03;;;12.10;99.90;;;;;;5036667;28;20458;-85
2024/04/03 11:40:18;;;;;;;11.55;7.60;;;12.10;99.90;;;;;;5045567;28;20044;-85
2024/04/03 11:42:45;;;;;;;13.02;8.00;;;12.20;99.90;;;;;;5038999;28;20038;-85
2024/04/03 11:45:12;;;;;;;13.43;8.07;;;12.20;99.90;;;;;;5049288;28;20045;-86
2024/04/03 11:47:38;;;;;;;12.82;7.43;;;12.30;99.90;;;;;;5034660;28;20120;-85
2024/04/03 11:50:05;;;;;;;12.57;7.15;;;12.30;99.90;;;;;;5040648;28;20045;-85
2024/04/03 11:52:33;;;;;;;9.88;6.68;;;12.40;99.90;;;;;;5035671;28;20522;-85
2024/04/03 11:54:59;;;;;;;9.95;6.70;;;12.30;99.90;;;;;;5037279;28;20519;-85
2024/04/03 11:57:27;;;;;;;8.38;5.85;;;12.30;99.90;;;;;;5036976;28;20073;-85
2024/04/03 11:59:55;;;;;;;8.20;5.45;;;12.10;99.90;;;;;;5032158;28;20076;-84
2024/04/03 12:02:22;;;;;;;8.63;5.65;;;12.00;99.90;;;;;;5035443;28;20065;-84
2024/04/03 12:04:49;;;;;;;8.48;6.00;;;12.00;99.90;;;;;;5038247;28;20053;-85
2024/04/03 12:07:19;;;;;;;7.60;5.97;;;11.90;99.90;;;;;;5033697;28;20754;-85
2024/04/03 12:09:48;;;;;;;9.35;6.15;;;11.80;99.90;;;;;;5046909;28;20046;-85
2024/04/03 12:12:15;;;;;;;9.95;6.25;;;11.80;99.90;;;;;;5037314;28;20419;-85
2024/04/03 12:14:43;;;;;;;10.15;6.10;;;11.60;99.90;;;;;;5035470;28;20038;-85
2024/04/03 12:17:10;;;;;;;8.25;5.70;;;11.70;99.90;;;;;;5041673;28;20041;-85
2024/04/03 12:22:06;;;;;;;9.77;5.57;;;11.60;99.90;;;;;;5055664;28;20054;-85
2024/04/03 12:24:33;;;;;;;8.45;5.30;;;11.70;99.90;;;;;;5034536;28;20052;-85
2024/04/03 12:27:00;;;;;;;8.02;5.32;;;11.60;99.90;;;;;;5030232;28;20129;-85
2024/04/03 12:29:27;;;;;;;10.07;4.93;;;11.70;99.90;;;;;;5031486;28;20111;-86
2024/04/03 12:31:54;;;;;;;8.52;5.13;;;11.70;99.90;;;;;;5040678;28;20042;-85
2024/04/03 12:34:20;;;;;;;10.20;5.55;;;11.70;99.90;;;;;;5041932;28;20084;-85
2024/04/03 12:36:47;;;;;;;9.00;5.40;;;11.90;99.90;;;;;;5043440;28;20065;-85
2024/04/03 12:39:13;;;;;;;7.25;4.72;;;11.90;99.90;;;;;;5040278;28;20076;-85
2024/04/03 12:41:40;;;;;;;8.13;4.93;;;11.90;99.90;;;;;;5051688;28;20096;-85
2024/04/03 12:44:07;;;;;;;8.23;5.38;;;12.00;99.90;;;;;;5044676;28;20058;-85
2024/04/03 12:46:33;;;;;;;10.48;5.28;;;11.90;99.90;;;;;;5047504;28;20036;-86
2024/04/03 12:49:00;;;;;;;11.55;6.47;;;12.00;99.90;;;;;;5034326;28;20096;-86
2024/04/03 12:51:26;;;;;;;8.95;5.60;;;12.00;99.90;;;;;;5046013;28;20450;-84
2024/04/03 12:53:53;;;;;;;7.53;4.95;;;12.00;99.90;;;;;;5046158;28;20530;-85